createdAt,value
2019-03-25T00:02:04.098Z,99.90
2019-03-25T00:04:34.230Z,99.90
2019-03-25T00:07:04.403Z,99.90
2019-03-25T00:09:34.554Z,99.90
2019-03-25T00:12:04.835Z,99.90
2019-03-25T00:14:34.979Z,99.90
2019-03-25T00:17:05.228Z,99.90
2019-03-25T00:19:35.383Z,99.90
2019-03-25T00:22:05.542Z,99.90
2019-03-25T00:24:38.936Z,99.90
2019-03-25T00:27:07.513Z,99.90
2019-03-25T00:29:37.697Z,99.90
2019-03-25T00:32:07.883Z,99.90
2019-03-25T00:34:38.058Z,99.90
2019-03-25T00:37:08.239Z,99.90
2019-03-25T00:39:38.404Z,99.90
2019-03-25T00:42:08.569Z,99.90
2019-03-25T00:44:38.913Z,99.90
2019-03-25T00:47:09.073Z,99.90
2019-03-25T00:49:39.209Z,99.90
2019-03-25T00:52:09.387Z,99.90
2019-03-25T00:54:49.652Z,99.90
2019-03-25T00:57:11.363Z,99.90
2019-03-25T00:59:41.525Z,99.90
2019-03-25T01:02:11.700Z,99.90
2019-03-25T01:04:41.844Z,99.90
2019-03-25T01:07:12.033Z,99.90
2019-03-25T01:09:42.184Z,99.90
2019-03-25T01:12:12.359Z,99.90
2019-03-25T01:14:42.517Z,99.90
2019-03-25T01:17:12.713Z,99.90
2019-03-25T01:19:42.878Z,99.90
2019-03-25T01:22:13.062Z,99.90
2019-03-25T01:24:43.203Z,99.90
2019-03-25T01:27:13.392Z,99.90
2019-03-25T01:29:43.568Z,99.90
2019-03-25T01:32:13.732Z,99.90
2019-03-25T01:34:43.894Z,99.90
2019-03-25T01:37:14.061Z,99.90
2019-03-25T01:39:44.219Z,99.90
2019-03-25T01:42:14.402Z,99.90
2019-03-25T01:44:44.582Z,99.90
2019-03-25T01:47:14.740Z,99.90
2019-03-25T01:49:44.922Z,99.90
2019-03-25T01:52:15.090Z,99.90
2019-03-25T01:54:45.285Z,99.90
2019-03-25T01:57:15.472Z,99.90
2019-03-25T01:59:45.641Z,99.90
2019-03-25T02:02:15.776Z,99.90
2019-03-25T02:04:45.946Z,99.90
2019-03-25T02:07:16.101Z,99.90
2019-03-25T02:09:46.273Z,99.90
2019-03-25T02:12:16.432Z,99.90
2019-03-25T02:14:46.632Z,99.90
2019-03-25T02:17:16.777Z,99.90
2019-03-25T02:19:46.927Z,99.90
2019-03-25T02:22:17.081Z,99.90
2019-03-25T02:24:47.249Z,99.90
2019-03-25T02:27:17.379Z,99.90
2019-03-25T02:29:47.589Z,99.90
2019-03-25T02:32:17.753Z,99.90
2019-03-25T02:34:47.918Z,99.90
2019-03-25T02:37:18.071Z,99.90
2019-03-25T02:39:48.256Z,99.90
2019-03-25T02:42:18.414Z,99.90
2019-03-25T02:44:48.581Z,99.90
2019-03-25T02:47:18.738Z,99.90
2019-03-25T02:49:48.896Z,99.90
2019-03-25T02:52:19.178Z,99.90
2019-03-25T02:54:49.366Z,99.90
2019-03-25T02:57:19.498Z,99.90
2019-03-25T02:59:49.688Z,99.90
2019-03-25T03:02:19.839Z,99.90
2019-03-25T03:04:50.039Z,99.90
2019-03-25T03:07:20.213Z,99.90
2019-03-25T03:09:50.384Z,99.90
2019-03-25T03:12:20.542Z,99.90
2019-03-25T03:14:50.713Z,99.90
2019-03-25T03:17:20.937Z,99.90
2019-03-25T03:19:51.056Z,99.90
2019-03-25T03:22:21.237Z,99.90
2019-03-25T03:24:51.400Z,99.90
2019-03-25T03:27:21.568Z,99.90
2019-03-25T03:29:51.729Z,99.90
2019-03-25T03:32:21.883Z,99.90
2019-03-25T03:34:52.081Z,99.90
2019-03-25T03:37:22.220Z,99.90
2019-03-25T03:39:52.382Z,99.90
2019-03-25T03:42:22.745Z,99.90
2019-03-25T03:44:52.851Z,99.90
2019-03-25T03:47:23.006Z,99.90
2019-03-25T03:49:53.154Z,99.90
2019-03-25T03:52:23.426Z,99.90
2019-03-25T03:54:53.786Z,99.90
2019-03-25T03:57:24.933Z,99.90
2019-03-25T03:59:55.499Z,99.90
2019-03-25T04:02:25.656Z,99.90
2019-03-25T04:04:55.812Z,99.90
2019-03-25T04:07:25.978Z,99.90
2019-03-25T04:09:56.112Z,99.90
2019-03-25T04:12:26.264Z,99.90
2019-03-25T04:14:56.405Z,99.90
2019-03-25T04:17:26.609Z,99.90
2019-03-25T04:19:56.736Z,99.90
2019-03-25T04:22:26.905Z,99.90
2019-03-25T04:24:57.046Z,99.90
2019-03-25T04:27:27.220Z,99.90
2019-03-25T04:29:57.396Z,99.90
2019-03-25T04:32:27.564Z,99.90
2019-03-25T04:34:57.732Z,99.90
2019-03-25T04:37:27.868Z,99.90
2019-03-25T04:39:58.036Z,99.90
2019-03-25T04:42:28.218Z,99.90
2019-03-25T04:44:58.354Z,99.90
2019-03-25T04:47:28.497Z,99.90
2019-03-25T04:49:58.661Z,99.90
2019-03-25T04:52:28.839Z,99.90
2019-03-25T04:54:59.016Z,99.90
2019-03-25T04:57:29.153Z,99.90
2019-03-25T04:59:59.331Z,99.90
2019-03-25T05:02:29.474Z,99.90
2019-03-25T05:04:59.661Z,99.90
2019-03-25T05:07:29.817Z,99.90
2019-03-25T05:09:59.979Z,99.90
2019-03-25T05:12:30.155Z,99.90
2019-03-25T05:15:00.348Z,99.90
2019-03-25T05:17:30.410Z,99.90
2019-03-25T05:20:00.546Z,99.90
2019-03-25T05:22:30.690Z,99.90
2019-03-25T05:25:00.826Z,99.90
2019-03-25T05:27:30.973Z,99.90
2019-03-25T05:30:01.103Z,99.90
2019-03-25T05:32:31.214Z,99.90
2019-03-25T05:35:01.367Z,99.90
2019-03-25T05:37:31.503Z,99.90
2019-03-25T05:40:01.638Z,99.90
2019-03-25T05:42:31.780Z,99.90
2019-03-25T05:45:01.922Z,99.90
2019-03-25T05:47:32.064Z,99.90
2019-03-25T05:50:02.187Z,99.90
2019-03-25T05:52:32.307Z,99.90
2019-03-25T05:55:02.473Z,99.90
2019-03-25T05:57:32.625Z,99.90
2019-03-25T06:00:02.794Z,99.90
2019-03-25T06:02:32.933Z,99.90
2019-03-25T06:05:03.080Z,99.90
2019-03-25T06:07:33.196Z,99.90
2019-03-25T06:10:03.318Z,99.90
2019-03-25T06:12:33.443Z,99.90
2019-03-25T06:15:03.814Z,99.90
2019-03-25T06:17:33.947Z,99.90
2019-03-25T06:20:04.207Z,99.90
2019-03-25T06:22:34.338Z,99.90
2019-03-25T06:25:04.477Z,99.90
2019-03-25T06:27:34.591Z,99.90
2019-03-25T06:30:04.994Z,99.90
2019-03-25T06:32:35.134Z,99.90
2019-03-25T06:35:05.433Z,99.90
2019-03-25T06:37:35.566Z,99.90
2019-03-25T06:40:06.419Z,99.90
2019-03-25T06:42:36.572Z,99.90
2019-03-25T06:45:07.529Z,99.90
2019-03-25T06:47:37.692Z,99.90
2019-03-25T06:50:08.454Z,99.90
2019-03-25T06:52:38.626Z,99.90
2019-03-25T06:55:09.490Z,99.90
2019-03-25T06:57:39.655Z,99.90
2019-03-25T07:00:10.361Z,99.90
2019-03-25T07:02:40.490Z,99.90
2019-03-25T07:05:11.058Z,99.90
2019-03-25T07:07:41.242Z,99.90
2019-03-25T07:10:11.655Z,99.90
2019-03-25T07:12:41.790Z,99.90
2019-03-25T07:15:12.114Z,99.90
2019-03-25T07:17:42.247Z,99.90
2019-03-25T07:20:12.613Z,99.90
2019-03-25T07:22:42.755Z,99.90
2019-03-25T07:25:12.900Z,99.90
2019-03-25T07:27:43.021Z,99.90
2019-03-25T07:30:13.245Z,99.90
2019-03-25T07:32:43.382Z,99.90
2019-03-25T07:35:13.624Z,99.90
2019-03-25T07:37:43.756Z,99.90
2019-03-25T07:40:13.991Z,99.90
2019-03-25T07:42:44.145Z,99.90
2019-03-25T07:45:14.464Z,99.90
2019-03-25T07:47:44.604Z,99.90
2019-03-25T07:50:15.028Z,99.90
2019-03-25T07:52:45.185Z,99.90
2019-03-25T07:55:15.447Z,99.90
2019-03-25T07:57:48.568Z,99.90
2019-03-25T08:00:17.650Z,99.90
2019-03-25T08:02:47.779Z,99.90
2019-03-25T08:05:17.924Z,99.90
2019-03-25T08:07:48.026Z,99.90
2019-03-25T08:10:31.079Z,99.90
2019-03-25T08:13:01.289Z,99.90
2019-03-25T08:15:31.591Z,99.90
2019-03-25T08:18:01.920Z,99.00
2019-03-25T08:20:32.056Z,98.00
2019-03-25T08:23:02.258Z,96.00
2019-03-25T08:25:32.432Z,96.70
2019-03-25T08:28:02.640Z,97.20
2019-03-25T08:30:32.747Z,97.50
2019-03-25T08:33:02.858Z,97.40
2019-03-25T08:35:33.132Z,97.30
2019-03-25T08:38:03.274Z,98.00
2019-03-25T08:40:33.411Z,98.20
2019-03-25T08:43:03.546Z,98.30
2019-03-25T08:45:33.702Z,99.30
2019-03-25T08:48:03.896Z,99.90
2019-03-25T08:50:34.072Z,99.90
2019-03-25T08:53:04.294Z,99.90
2019-03-25T08:55:34.459Z,99.90
2019-03-25T08:58:12.062Z,99.90
2019-03-25T09:00:36.469Z,99.90
2019-03-25T09:03:06.605Z,99.90
2019-03-25T09:05:36.757Z,99.90
2019-03-25T09:08:06.909Z,99.90
2019-03-25T09:10:37.066Z,99.90
2019-03-25T09:13:07.199Z,99.90
2019-03-25T09:15:37.380Z,99.90
2019-03-25T09:18:07.525Z,99.90
2019-03-25T09:20:37.771Z,99.90
2019-03-25T09:23:07.898Z,99.90
2019-03-25T09:25:38.056Z,99.90
2019-03-25T09:28:08.184Z,99.70
2019-03-25T09:31:12.738Z,98.80
2019-03-25T09:33:43.143Z,99.20
2019-03-25T09:36:13.282Z,98.50
2019-03-25T09:38:43.542Z,97.90
2019-03-25T09:41:13.685Z,97.20
2019-03-25T09:43:43.926Z,94.50
2019-03-25T09:46:14.182Z,92.10
2019-03-25T09:48:44.708Z,91.00
2019-03-25T09:51:14.844Z,89.40
2019-03-25T09:53:45.034Z,90.00
2019-03-25T09:56:16.193Z,89.50
2019-03-25T09:58:46.326Z,84.90
2019-03-25T10:01:16.675Z,79.40
2019-03-25T10:03:46.814Z,76.10
2019-03-25T10:06:16.968Z,72.00
2019-03-25T10:08:47.123Z,67.90
2019-03-25T10:11:17.246Z,65.20
2019-03-25T10:13:47.363Z,61.40
2019-03-25T10:16:17.598Z,58.80
2019-03-25T10:18:47.747Z,57.10
2019-03-25T10:21:17.859Z,55.00
2019-03-25T10:23:48.324Z,54.20
2019-03-25T10:26:18.592Z,52.10
2019-03-25T10:28:49.310Z,51.50
2019-03-25T10:31:19.484Z,50.50
2019-03-25T10:33:49.615Z,49.60
2019-03-25T10:36:19.753Z,49.60
2019-03-25T10:38:49.911Z,48.50
2019-03-25T10:41:20.054Z,48.60
2019-03-25T10:43:50.190Z,48.80
2019-03-25T10:46:20.307Z,47.20
2019-03-25T10:48:50.451Z,48.60
2019-03-25T10:51:20.593Z,47.30
2019-03-25T10:53:50.750Z,48.50
2019-03-25T10:56:20.921Z,48.20
2019-03-25T10:58:57.978Z,46.80
2019-03-25T11:01:22.854Z,45.30
2019-03-25T11:03:53.011Z,45.10
2019-03-25T11:06:23.150Z,44.20
2019-03-25T11:08:53.289Z,43.00
2019-03-25T11:11:23.427Z,42.00
2019-03-25T11:13:53.581Z,40.50
2019-03-25T11:16:23.712Z,40.90
2019-03-25T11:18:53.842Z,40.50
2019-03-25T11:21:23.968Z,39.80
2019-03-25T11:23:54.122Z,39.10
2019-03-25T11:26:24.271Z,38.80
2019-03-25T11:28:54.442Z,37.90
2019-03-25T11:31:24.592Z,36.70
2019-03-25T11:33:54.734Z,35.70
2019-03-25T11:36:24.849Z,34.80
2019-03-25T11:38:54.997Z,34.40
2019-03-25T11:41:25.152Z,33.80
2019-03-25T11:43:55.334Z,33.20
2019-03-25T11:46:25.475Z,33.40
2019-03-25T11:48:55.603Z,32.30
2019-03-25T11:51:25.754Z,31.70
2019-03-25T11:53:55.880Z,32.40
2019-03-25T11:56:26.021Z,32.60
2019-03-25T11:58:56.159Z,33.10
2019-03-25T12:01:26.298Z,33.40
2019-03-25T12:03:56.428Z,33.10
2019-03-25T12:06:26.597Z,33.00
2019-03-25T12:08:56.732Z,32.90
2019-03-25T12:11:26.875Z,32.50
2019-03-25T12:13:57.017Z,32.30
2019-03-25T12:16:27.179Z,32.30
2019-03-25T12:18:57.351Z,32.30
2019-03-25T12:21:27.503Z,31.20
2019-03-25T12:23:57.638Z,31.70
2019-03-25T12:26:27.826Z,31.30
2019-03-25T12:28:57.976Z,31.20
2019-03-25T12:31:28.175Z,31.30
2019-03-25T12:33:58.483Z,31.00
2019-03-25T12:36:28.681Z,30.80
2019-03-25T12:38:58.822Z,30.70
2019-03-25T12:41:28.989Z,31.30
2019-03-25T12:43:59.173Z,31.90
2019-03-25T12:46:29.418Z,31.20
2019-03-25T12:48:59.586Z,30.80
2019-03-25T12:51:29.734Z,31.50
2019-03-25T12:53:59.961Z,31.00
2019-03-25T12:56:30.121Z,30.30
2019-03-25T12:59:00.259Z,30.60
2019-03-25T13:01:30.457Z,30.90
2019-03-25T13:04:00.633Z,31.00
2019-03-25T13:06:30.825Z,31.10
2019-03-25T13:09:01.022Z,31.60
2019-03-25T13:11:31.204Z,31.00
2019-03-25T13:14:01.382Z,30.70
2019-03-25T13:16:31.569Z,30.50
2019-03-25T13:19:01.722Z,31.10
2019-03-25T13:21:31.895Z,30.70
2019-03-25T13:24:02.075Z,31.20
2019-03-25T13:26:32.259Z,31.60
2019-03-25T13:29:02.726Z,30.80
2019-03-25T13:31:32.910Z,32.00
2019-03-25T13:34:03.080Z,32.70
2019-03-25T13:36:33.220Z,33.30
2019-03-25T13:39:04.207Z,34.10
2019-03-25T13:41:34.341Z,34.90
2019-03-25T13:44:04.508Z,37.30
2019-03-25T13:46:34.682Z,39.10
2019-03-25T13:49:04.832Z,40.10
2019-03-25T13:51:34.989Z,42.00
2019-03-25T13:54:06.937Z,42.90
2019-03-25T13:56:36.918Z,43.10
2019-03-25T13:59:07.076Z,43.50
2019-03-25T14:01:37.185Z,44.60
2019-03-25T14:04:07.349Z,45.50
2019-03-25T14:06:37.492Z,45.50
2019-03-25T14:09:08.453Z,45.80
2019-03-25T14:11:38.589Z,45.90
2019-03-25T14:14:08.736Z,46.70
2019-03-25T14:16:38.873Z,47.10
2019-03-25T14:19:09.056Z,47.40
2019-03-25T14:21:39.205Z,47.70
2019-03-25T14:24:09.410Z,48.40
2019-03-25T14:26:39.532Z,48.80
2019-03-25T14:29:09.708Z,49.00
2019-03-25T14:31:39.840Z,48.10
2019-03-25T14:34:10.009Z,47.50
2019-03-25T14:36:40.218Z,47.00
2019-03-25T14:39:10.431Z,47.30
2019-03-25T14:41:40.606Z,47.00
2019-03-25T14:44:10.761Z,46.20
2019-03-25T14:46:40.942Z,46.80
2019-03-25T14:49:11.127Z,46.90
2019-03-25T14:51:41.271Z,47.30
2019-03-25T14:54:11.464Z,48.10
2019-03-25T14:56:41.634Z,48.50
2019-03-25T14:59:11.810Z,48.60
2019-03-25T15:01:41.949Z,49.20
2019-03-25T15:04:12.120Z,49.90
2019-03-25T15:06:42.295Z,50.50
2019-03-25T15:09:12.502Z,50.30
2019-03-25T15:11:42.797Z,51.00
2019-03-25T15:14:12.968Z,50.80
2019-03-25T15:16:43.090Z,51.30
2019-03-25T15:19:13.263Z,51.50
2019-03-25T15:21:43.529Z,51.50
2019-03-25T15:24:13.701Z,51.30
2019-03-25T15:26:43.882Z,51.50
2019-03-25T15:29:14.038Z,51.50
2019-03-25T15:31:44.201Z,51.10
2019-03-25T15:34:14.383Z,51.60
2019-03-25T15:36:44.565Z,51.40
2019-03-25T15:39:14.738Z,51.70
2019-03-25T15:41:47.121Z,50.80
2019-03-25T15:44:16.711Z,50.90
2019-03-25T15:46:55.389Z,50.70
2019-03-25T15:49:18.711Z,50.70
2019-03-25T15:51:48.886Z,51.00
2019-03-25T15:54:19.053Z,50.60
2019-03-25T15:56:49.242Z,51.20
2019-03-25T15:59:19.411Z,51.10
2019-03-25T16:01:49.520Z,51.20
2019-03-25T16:04:19.667Z,51.00
2019-03-25T16:06:49.809Z,50.80
2019-03-25T16:09:19.938Z,50.40
2019-03-25T16:11:50.082Z,50.20
2019-03-25T16:14:20.199Z,50.10
2019-03-25T16:16:50.333Z,49.90
2019-03-25T16:19:20.434Z,50.10
2019-03-25T16:21:50.574Z,50.80
2019-03-25T16:24:20.703Z,51.20
2019-03-25T16:26:50.850Z,51.80
2019-03-25T16:29:20.975Z,52.10
2019-03-25T16:31:51.109Z,51.30
2019-03-25T16:34:21.260Z,50.70
2019-03-25T16:36:51.427Z,49.90
2019-03-25T16:39:21.551Z,50.60
2019-03-25T16:41:51.699Z,50.50
2019-03-25T16:44:21.836Z,50.50
2019-03-25T16:46:51.961Z,51.00
2019-03-25T16:49:22.125Z,51.40
2019-03-25T16:51:52.257Z,51.40
2019-03-25T16:54:22.402Z,52.00
2019-03-25T16:56:52.593Z,52.60
2019-03-25T16:59:22.755Z,52.90
2019-03-25T17:01:52.908Z,53.20
2019-03-25T17:04:23.020Z,53.00
2019-03-25T17:06:53.174Z,53.50
2019-03-25T17:09:23.336Z,53.50
2019-03-25T17:11:53.468Z,53.90
2019-03-25T17:14:23.641Z,54.30
2019-03-25T17:16:53.778Z,54.80
2019-03-25T17:19:23.938Z,55.20
2019-03-25T17:21:58.392Z,55.30
2019-03-25T17:24:25.861Z,55.50
2019-03-25T17:26:56.015Z,56.10
2019-03-25T17:29:26.170Z,56.20
2019-03-25T17:31:56.319Z,56.10
2019-03-25T17:34:26.490Z,56.70
2019-03-25T17:36:56.641Z,56.90
2019-03-25T17:39:26.807Z,57.20
2019-03-25T17:41:56.941Z,57.90
2019-03-25T17:44:27.100Z,58.60
2019-03-25T17:46:57.247Z,58.80
2019-03-25T17:49:27.420Z,59.30
2019-03-25T17:51:57.558Z,59.30
2019-03-25T17:54:27.695Z,59.00
2019-03-25T17:56:57.845Z,59.10
2019-03-25T17:59:28.024Z,59.20
2019-03-25T18:01:58.199Z,59.30
2019-03-25T18:04:28.340Z,59.30
2019-03-25T18:06:58.493Z,59.80
2019-03-25T18:09:28.641Z,59.80
2019-03-25T18:11:58.810Z,60.30
2019-03-25T18:14:28.962Z,60.60
2019-03-25T18:16:59.079Z,61.40
2019-03-25T18:19:29.217Z,61.60
2019-03-25T18:21:59.358Z,61.70
2019-03-25T18:24:29.512Z,62.20
2019-03-25T18:26:59.672Z,62.40
2019-03-25T18:29:29.817Z,62.80
2019-03-25T18:32:00.013Z,63.30
2019-03-25T18:34:30.151Z,63.70
2019-03-25T18:37:00.314Z,63.90
2019-03-25T18:39:30.438Z,63.80
2019-03-25T18:42:00.612Z,64.40
2019-03-25T18:44:30.735Z,64.70
2019-03-25T18:47:00.949Z,64.60
2019-03-25T18:49:31.113Z,64.30
2019-03-25T18:52:01.281Z,64.40
2019-03-25T18:54:31.430Z,65.10
2019-03-25T18:57:01.652Z,65.30
2019-03-25T18:59:31.737Z,65.50
2019-03-25T19:02:01.916Z,66.60
2019-03-25T19:04:32.047Z,66.60
2019-03-25T19:07:02.829Z,66.20
2019-03-25T19:09:32.992Z,66.50
2019-03-25T19:12:03.138Z,66.60
2019-03-25T19:14:33.311Z,66.40
2019-03-25T19:17:05.416Z,66.70
2019-03-25T19:19:35.349Z,66.50
2019-03-25T19:22:05.623Z,66.50
2019-03-25T19:24:35.767Z,66.70
2019-03-25T19:27:06.022Z,67.00
2019-03-25T19:29:36.196Z,67.40
2019-03-25T19:32:07.155Z,67.30
2019-03-25T19:34:37.520Z,67.30
2019-03-25T19:37:07.707Z,67.60
2019-03-25T19:39:37.862Z,67.70
2019-03-25T19:42:08.018Z,68.00
2019-03-25T19:44:38.147Z,68.10
2019-03-25T19:47:08.297Z,68.00
2019-03-25T19:49:38.485Z,68.60
2019-03-25T19:52:09.572Z,68.40
2019-03-25T19:54:39.798Z,68.60
2019-03-25T19:57:09.940Z,68.60
2019-03-25T19:59:40.519Z,68.90
2019-03-25T20:02:18.885Z,68.80
2019-03-25T20:04:42.453Z,69.20
2019-03-25T20:07:12.618Z,69.70
2019-03-25T20:09:42.800Z,70.20
2019-03-25T20:12:13.023Z,71.00
2019-03-25T20:14:43.161Z,71.20
2019-03-25T20:17:13.310Z,71.80
2019-03-25T20:19:43.477Z,72.10
2019-03-25T20:22:13.671Z,72.60
2019-03-25T20:24:43.851Z,72.70
2019-03-25T20:27:14.046Z,73.50
2019-03-25T20:29:44.139Z,73.50
2019-03-25T20:32:14.289Z,73.40
2019-03-25T20:34:44.462Z,73.60
2019-03-25T20:37:14.644Z,74.00
2019-03-25T20:39:44.835Z,74.40
2019-03-25T20:42:14.965Z,74.70
2019-03-25T20:44:45.174Z,75.10
2019-03-25T20:47:15.351Z,75.30
2019-03-25T20:49:45.491Z,77.10
2019-03-25T20:52:15.632Z,76.60
2019-03-25T20:54:45.827Z,77.00
2019-03-25T20:57:15.942Z,77.10
2019-03-25T20:59:46.046Z,78.40
2019-03-25T21:02:18.808Z,78.20
2019-03-25T21:04:48.957Z,78.00
2019-03-25T21:07:19.100Z,77.60
2019-03-25T21:10:00.450Z,77.30
2019-03-25T21:12:30.690Z,77.60
2019-03-25T21:15:00.786Z,77.10
2019-03-25T21:17:31.016Z,77.00
2019-03-25T21:20:01.103Z,76.60
2019-03-25T21:22:31.421Z,76.70
2019-03-25T21:25:01.643Z,76.50
2019-03-25T21:27:31.821Z,75.80
2019-03-25T21:30:02.108Z,76.00
2019-03-25T21:32:32.337Z,75.50
2019-03-25T21:35:02.532Z,75.60
2019-03-25T21:37:32.735Z,75.80
2019-03-25T21:40:02.995Z,76.10
2019-03-25T21:42:33.057Z,76.40
2019-03-25T21:45:03.254Z,75.10
2019-03-25T21:47:33.347Z,75.20
2019-03-25T21:50:03.469Z,75.50
2019-03-25T21:52:33.791Z,75.60
2019-03-25T21:55:03.956Z,75.30
2019-03-25T21:57:34.105Z,75.30
2019-03-25T22:00:04.479Z,75.30
2019-03-25T22:02:34.660Z,75.30
2019-03-25T22:05:05.049Z,75.00
2019-03-25T22:07:35.247Z,74.80
2019-03-25T22:10:06.494Z,74.80
2019-03-25T22:12:36.680Z,74.50
2019-03-25T22:15:09.933Z,74.40
2019-03-25T22:17:40.290Z,73.80
2019-03-25T22:20:11.427Z,74.10
2019-03-25T22:22:42.532Z,74.00
2019-03-25T22:25:12.862Z,73.90
2019-03-25T22:27:43.063Z,73.80
2019-03-25T22:30:13.459Z,73.40
2019-03-25T22:32:43.636Z,73.80
2019-03-25T22:35:13.923Z,74.50
2019-03-25T22:37:44.102Z,74.80
2019-03-25T22:40:14.380Z,75.10
2019-03-25T22:42:44.608Z,74.80
2019-03-25T22:45:16.190Z,74.90
2019-03-25T22:47:46.393Z,75.10
2019-03-25T22:50:27.949Z,75.20
2019-03-25T22:52:58.515Z,75.20
2019-03-25T22:55:28.717Z,75.00
2019-03-25T22:57:58.944Z,75.20
2019-03-25T23:00:40.860Z,75.50
2019-03-25T23:03:11.136Z,75.10
2019-03-25T23:05:41.324Z,75.40
2019-03-25T23:08:11.516Z,74.90
2019-03-25T23:10:41.878Z,74.40
2019-03-25T23:13:12.033Z,74.20
2019-03-25T23:15:42.241Z,74.00
2019-03-25T23:18:12.434Z,74.10
2019-03-25T23:20:42.583Z,73.50
2019-03-25T23:23:12.767Z,74.00
2019-03-25T23:25:42.969Z,74.00
2019-03-25T23:28:13.150Z,73.40
2019-03-25T23:30:43.282Z,73.90
2019-03-25T23:33:13.475Z,74.20
2019-03-25T23:35:43.656Z,73.90
2019-03-25T23:38:13.815Z,73.90
2019-03-25T23:40:43.978Z,73.70
2019-03-25T23:43:14.145Z,73.90
2019-03-25T23:45:44.672Z,74.00
2019-03-25T23:48:14.857Z,74.20
2019-03-25T23:50:45.022Z,74.60
2019-03-25T23:53:15.204Z,74.50
2019-03-25T23:55:45.363Z,74.60
2019-03-25T23:58:15.524Z,74.90
